createdAt,value
2023-07-15T00:00:49.843Z,86.31
2023-07-15T00:01:49.930Z,86.51
2023-07-15T00:02:49.861Z,86.99
2023-07-15T00:03:49.869Z,86.79
2023-07-15T00:04:49.842Z,87.42
2023-07-15T00:05:49.824Z,88.10
2023-07-15T00:06:49.823Z,88.19
2023-07-15T00:07:49.815Z,89.25
2023-07-15T00:08:49.836Z,89.06
2023-07-15T00:09:49.811Z,89.25
2023-07-15T00:10:49.804Z,89.35
2023-07-15T00:11:49.804Z,89.92
2023-07-15T00:12:49.817Z,90.31
2023-07-15T00:13:49.790Z,90.41
2023-07-15T00:14:49.789Z,90.41
2023-07-15T00:15:49.792Z,90.12
2023-07-15T00:16:49.783Z,90.17
2023-07-15T00:17:49.807Z,90.31
2023-07-15T00:18:49.783Z,90.26
2023-07-15T00:19:49.777Z,89.88
2023-07-15T00:20:49.768Z,90.36
2023-07-15T00:21:49.776Z,90.55
2023-07-15T00:22:49.829Z,90.26
2023-07-15T00:23:49.754Z,90.17
2023-07-15T00:24:49.755Z,90.45
2023-07-15T00:25:49.754Z,89.88
2023-07-15T00:26:49.761Z,90.07
2023-07-15T00:27:49.741Z,90.17
2023-07-15T00:28:49.738Z,89.78
2023-07-15T00:29:49.737Z,90.12
2023-07-15T00:30:49.736Z,89.88
2023-07-15T00:31:49.798Z,90.12
2023-07-15T00:32:49.779Z,90.07
2023-07-15T00:33:49.863Z,89.88
2023-07-15T00:34:49.719Z,90.17
2023-07-15T00:35:49.720Z,89.98
2023-07-15T00:36:49.717Z,89.98
2023-07-15T00:37:49.708Z,89.88
2023-07-15T00:38:49.733Z,90.17
2023-07-15T00:39:49.739Z,90.26
2023-07-15T00:40:49.703Z,90.07
2023-07-15T00:41:49.692Z,91.08
2023-07-15T00:42:49.686Z,90.21
2023-07-15T00:43:49.683Z,89.44
2023-07-15T00:44:49.686Z,89.44
2023-07-15T00:45:49.737Z,89.44
2023-07-15T00:46:49.673Z,89.54
2023-07-15T00:47:49.688Z,89.59
2023-07-15T00:48:49.665Z,89.50
2023-07-15T00:49:49.663Z,89.69
2023-07-15T00:50:49.660Z,89.88
2023-07-15T00:51:49.653Z,90.45
2023-07-15T00:52:49.651Z,90.17
2023-07-15T00:53:49.648Z,90.26
2023-07-15T00:54:49.644Z,90.26
2023-07-15T00:55:49.640Z,89.69
2023-07-15T00:56:49.635Z,90.07
2023-07-15T00:57:49.629Z,90.65
2023-07-15T00:58:49.627Z,90.36
2023-07-15T00:59:49.622Z,90.75
2023-07-15T01:00:49.654Z,90.26
2023-07-15T01:01:49.618Z,90.55
2023-07-15T01:02:49.781Z,90.26
2023-07-15T01:03:49.634Z,90.84
2023-07-15T01:04:49.602Z,90.84
2023-07-15T01:05:49.603Z,91.32
2023-07-15T01:06:49.602Z,90.94
2023-07-15T01:07:49.594Z,90.45
2023-07-15T01:08:49.586Z,90.45
2023-07-15T01:09:49.589Z,91.32
2023-07-15T01:10:49.580Z,91.13
2023-07-15T01:11:49.584Z,90.45
2023-07-15T01:12:49.575Z,90.65
2023-07-15T01:13:49.571Z,90.55
2023-07-15T01:14:49.566Z,89.88
2023-07-15T01:15:49.600Z,91.32
2023-07-15T01:16:49.578Z,91.22
2023-07-15T01:17:49.590Z,90.94
2023-07-15T01:18:49.544Z,91.32
2023-07-15T01:19:49.544Z,91.22
2023-07-15T01:20:49.541Z,90.65
2023-07-15T01:21:49.541Z,90.84
2023-07-15T01:22:49.580Z,90.94
2023-07-15T01:23:49.527Z,90.65
2023-07-15T01:24:49.524Z,91.52
2023-07-15T01:25:49.519Z,91.52
2023-07-15T01:26:49.515Z,91.52
2023-07-15T01:27:49.510Z,91.22
2023-07-15T01:28:49.503Z,91.13
2023-07-15T01:29:49.505Z,91.71
2023-07-15T01:30:49.527Z,91.90
2023-07-15T01:31:49.499Z,92.19
2023-07-15T01:32:49.533Z,92.47
2023-07-15T01:33:49.488Z,91.52
2023-07-15T01:34:49.482Z,91.71
2023-07-15T01:35:49.480Z,91.90
2023-07-15T01:36:49.476Z,91.90
2023-07-15T01:37:49.470Z,92.57
2023-07-15T01:38:49.470Z,91.99
2023-07-15T01:39:49.467Z,92.57
2023-07-15T01:40:49.466Z,91.99
2023-07-15T01:41:49.459Z,92.76
2023-07-15T01:42:49.454Z,92.76
2023-07-15T01:43:49.448Z,92.57
2023-07-15T01:44:49.446Z,92.86
2023-07-15T01:45:49.470Z,93.05
2023-07-15T01:46:49.471Z,92.96
2023-07-15T01:47:49.446Z,93.44
2023-07-15T01:48:49.484Z,93.91
2023-07-15T01:49:49.434Z,92.76
2023-07-15T01:50:49.428Z,93.73
2023-07-15T01:51:49.414Z,93.63
2023-07-15T01:52:49.411Z,94.30
2023-07-15T01:53:49.410Z,94.49
2023-07-15T01:54:49.400Z,94.21
2023-07-15T01:55:49.398Z,94.59
2023-07-15T01:56:49.396Z,94.11
2023-07-15T01:57:49.390Z,95.07
2023-07-15T01:58:49.408Z,94.78
2023-07-15T01:59:49.382Z,94.49
2023-07-15T02:00:49.443Z,94.49
2023-07-15T02:01:49.460Z,94.21
2023-07-15T02:02:49.505Z,94.40
2023-07-15T02:03:49.542Z,94.30
2023-07-15T02:04:49.369Z,94.49
2023-07-15T02:05:49.526Z,94.49
2023-07-15T02:06:49.348Z,94.59
2023-07-15T02:07:49.345Z,94.49
2023-07-15T02:08:49.344Z,94.11
2023-07-15T02:09:49.341Z,94.78
2023-07-15T02:10:49.332Z,94.11
2023-07-15T02:11:49.329Z,94.21
2023-07-15T02:12:49.326Z,94.30
2023-07-15T02:13:49.316Z,94.49
2023-07-15T02:14:49.316Z,94.21
2023-07-15T02:15:50.034Z,94.49
2023-07-15T02:16:49.347Z,94.59
2023-07-15T02:17:49.329Z,94.49
2023-07-15T02:18:49.310Z,94.21
2023-07-15T02:19:49.294Z,94.88
2023-07-15T02:20:49.293Z,94.49
2023-07-15T02:21:49.294Z,94.59
2023-07-15T02:22:49.344Z,94.78
2023-07-15T02:23:49.273Z,94.78
2023-07-15T02:24:49.274Z,94.49
2023-07-15T02:25:49.279Z,94.68
2023-07-15T02:26:49.266Z,95.17
2023-07-15T02:27:49.266Z,94.88
2023-07-15T02:28:49.250Z,94.88
2023-07-15T02:29:49.261Z,94.98
2023-07-15T02:30:49.279Z,94.59
2023-07-15T02:31:49.243Z,94.59
2023-07-15T02:32:49.303Z,94.98
2023-07-15T02:33:49.241Z,95.12
2023-07-15T02:34:49.227Z,95.07
2023-07-15T02:35:49.225Z,94.88
2023-07-15T02:36:49.240Z,95.02
2023-07-15T02:37:49.218Z,95.21
2023-07-15T02:38:49.224Z,94.64
2023-07-15T02:39:49.211Z,94.68
2023-07-15T02:40:49.233Z,94.73
2023-07-15T02:41:49.199Z,94.83
2023-07-15T02:42:49.233Z,95.17
2023-07-15T02:43:49.189Z,94.54
2023-07-15T02:44:49.189Z,94.25
2023-07-15T02:45:49.207Z,94.49
2023-07-15T02:46:49.263Z,94.68
2023-07-15T02:47:49.234Z,94.83
2023-07-15T02:48:49.165Z,94.92
2023-07-15T02:49:49.168Z,94.92
2023-07-15T02:50:49.161Z,94.73
2023-07-15T02:51:49.157Z,95.89
2023-07-15T02:52:49.161Z,95.60
2023-07-15T02:53:49.151Z,95.12
2023-07-15T02:54:49.143Z,95.60
2023-07-15T02:55:49.148Z,95.21
2023-07-15T02:56:49.136Z,95.70
2023-07-15T02:57:49.145Z,95.21
2023-07-15T02:58:49.121Z,95.31
2023-07-15T02:59:49.126Z,95.40
2023-07-15T03:00:49.119Z,95.40
2023-07-15T03:01:49.181Z,95.02
2023-07-15T03:02:49.471Z,95.31
2023-07-15T03:03:49.102Z,94.92
2023-07-15T03:04:49.140Z,95.40
2023-07-15T03:05:49.103Z,95.21
2023-07-15T03:06:49.092Z,94.92
2023-07-15T03:07:49.091Z,94.73
2023-07-15T03:08:49.084Z,94.73
2023-07-15T03:09:49.081Z,95.12
2023-07-15T03:10:49.074Z,95.26
2023-07-15T03:11:49.071Z,95.55
2023-07-15T03:12:49.084Z,95.26
2023-07-15T03:13:49.069Z,94.68
2023-07-15T03:14:49.058Z,94.30
2023-07-15T03:15:49.055Z,94.30
2023-07-15T03:16:49.076Z,94.98
2023-07-15T03:17:49.092Z,95.60
2023-07-15T03:18:49.036Z,95.50
2023-07-15T03:19:49.048Z,95.21
2023-07-15T03:20:49.037Z,95.31
2023-07-15T03:21:49.057Z,96.85
2023-07-15T03:22:49.037Z,96.61
2023-07-15T03:23:49.023Z,96.94
2023-07-15T03:24:49.018Z,96.80
2023-07-15T03:25:49.008Z,96.99
2023-07-15T03:26:49.010Z,97.19
2023-07-15T03:27:49.012Z,97.28
2023-07-15T03:28:49.000Z,97.28
2023-07-15T03:29:48.992Z,97.19
2023-07-15T03:30:48.989Z,98.10
2023-07-15T03:31:49.007Z,98.67
2023-07-15T03:32:49.013Z,98.48
2023-07-15T03:33:48.988Z,98.77
2023-07-15T03:34:48.973Z,99.25
2023-07-15T03:35:48.971Z,99.82
2023-07-15T03:36:48.969Z,99.99
2023-07-15T03:37:48.976Z,99.99
2023-07-15T03:38:48.973Z,99.99
2023-07-15T03:39:48.957Z,99.99
2023-07-15T03:40:48.946Z,99.99
2023-07-15T03:41:48.941Z,99.99
2023-07-15T03:42:48.932Z,99.99
2023-07-15T03:43:48.929Z,99.99
2023-07-15T03:44:48.933Z,99.99
2023-07-15T03:45:48.997Z,99.99
2023-07-15T03:46:48.938Z,99.99
2023-07-15T03:47:48.968Z,99.99
2023-07-15T03:48:48.912Z,99.99
2023-07-15T03:49:48.912Z,99.99
2023-07-15T03:50:48.894Z,99.99
2023-07-15T03:51:48.896Z,99.99
2023-07-15T03:52:48.897Z,99.99
2023-07-15T03:53:48.883Z,99.99
2023-07-15T03:54:48.885Z,99.99
2023-07-15T03:55:48.873Z,99.99
2023-07-15T03:56:48.877Z,99.99
2023-07-15T03:57:48.864Z,99.99
2023-07-15T03:58:48.861Z,99.99
2023-07-15T03:59:48.858Z,99.99
2023-07-15T04:00:48.849Z,99.99
2023-07-15T04:01:48.927Z,99.99
2023-07-15T04:02:48.886Z,99.99
2023-07-15T04:03:48.881Z,99.99
2023-07-15T04:04:48.842Z,99.99
2023-07-15T04:05:48.830Z,99.99
2023-07-15T04:06:48.825Z,99.99
2023-07-15T04:07:48.876Z,99.99
2023-07-15T04:08:48.813Z,99.99
2023-07-15T04:09:48.824Z,99.99
2023-07-15T04:10:48.812Z,99.99
2023-07-15T04:11:48.803Z,99.99
2023-07-15T04:12:48.802Z,99.99
2023-07-15T04:13:48.792Z,99.99
2023-07-15T04:14:48.786Z,99.99
2023-07-15T04:15:48.903Z,99.99
2023-07-15T04:16:48.782Z,99.99
2023-07-15T04:17:48.908Z,99.99
2023-07-15T04:18:48.777Z,99.99
2023-07-15T04:19:48.762Z,99.99
2023-07-15T04:20:48.841Z,99.99
2023-07-15T04:21:48.789Z,99.99
2023-07-15T04:22:48.810Z,99.99
2023-07-15T04:23:48.775Z,99.99
2023-07-15T04:24:48.744Z,99.99
2023-07-15T04:25:48.733Z,99.99
2023-07-15T04:26:48.729Z,99.99
2023-07-15T04:27:48.721Z,99.99
2023-07-15T04:28:48.719Z,99.99
2023-07-15T04:29:48.714Z,99.99
2023-07-15T04:30:48.716Z,99.99
2023-07-15T04:31:48.736Z,99.99
2023-07-15T04:32:48.774Z,99.99
2023-07-15T04:33:48.707Z,99.99
2023-07-15T04:34:48.691Z,99.99
2023-07-15T04:35:48.686Z,99.99
2023-07-15T04:36:48.681Z,99.99
2023-07-15T04:37:48.703Z,99.99
2023-07-15T04:38:48.673Z,99.99
2023-07-15T04:39:48.668Z,99.99
2023-07-15T04:40:48.663Z,99.99
2023-07-15T04:41:48.661Z,99.99
2023-07-15T04:42:48.656Z,99.99
2023-07-15T04:43:48.648Z,99.99
2023-07-15T04:44:48.730Z,99.99
2023-07-15T04:45:48.670Z,99.99
2023-07-15T04:46:48.649Z,99.99
2023-07-15T04:47:48.637Z,99.99
2023-07-15T04:48:48.623Z,99.99
2023-07-15T04:49:48.615Z,99.99
2023-07-15T04:50:48.617Z,99.99
2023-07-15T04:51:48.606Z,99.99
2023-07-15T04:52:48.607Z,99.99
2023-07-15T04:53:48.600Z,99.99
2023-07-15T04:54:48.619Z,99.99
2023-07-15T04:55:48.596Z,99.99
2023-07-15T04:56:48.587Z,99.99
2023-07-15T04:57:48.581Z,99.99
2023-07-15T04:58:48.577Z,99.99
2023-07-15T04:59:48.571Z,99.99
2023-07-15T05:00:48.568Z,99.99
2023-07-15T05:01:48.636Z,99.99
2023-07-15T05:02:48.619Z,99.99
2023-07-15T05:03:48.567Z,99.99
2023-07-15T05:04:48.551Z,99.99
2023-07-15T05:05:48.558Z,99.99
2023-07-15T05:06:48.538Z,99.99
2023-07-15T05:07:57.786Z,99.99
2023-07-15T05:08:48.529Z,99.99
2023-07-15T05:09:48.528Z,99.99
2023-07-15T05:10:48.521Z,99.99
2023-07-15T05:11:48.517Z,99.99
2023-07-15T05:12:48.528Z,99.99
2023-07-15T05:13:48.511Z,99.99
2023-07-15T05:14:48.499Z,99.99
2023-07-15T05:15:48.498Z,99.99
2023-07-15T05:16:48.499Z,99.99
2023-07-15T05:17:48.529Z,99.99
2023-07-15T05:18:48.495Z,99.99
2023-07-15T05:19:48.477Z,99.99
2023-07-15T05:20:48.479Z,99.99
2023-07-15T05:21:48.470Z,99.99
2023-07-15T05:22:48.491Z,99.99
2023-07-15T05:23:48.458Z,99.99
2023-07-15T05:24:48.458Z,99.99
2023-07-15T05:25:48.454Z,99.99
2023-07-15T05:26:48.448Z,99.99
2023-07-15T05:27:48.451Z,99.99
2023-07-15T05:28:48.436Z,99.99
2023-07-15T05:29:48.437Z,99.99
2023-07-15T05:30:48.433Z,99.99
2023-07-15T05:31:48.487Z,99.99
2023-07-15T05:32:48.487Z,99.99
2023-07-15T05:33:48.422Z,99.99
2023-07-15T05:34:48.418Z,99.99
2023-07-15T05:35:48.409Z,99.99
2023-07-15T05:36:48.405Z,99.99
2023-07-15T05:37:48.405Z,99.99
2023-07-15T05:38:48.393Z,99.79
2023-07-15T05:39:48.392Z,99.99
2023-07-15T05:40:48.391Z,99.84
2023-07-15T05:41:48.383Z,99.84
2023-07-15T05:42:48.397Z,99.64
2023-07-15T05:43:48.371Z,99.35
2023-07-15T05:44:48.369Z,98.49
2023-07-15T05:45:48.371Z,98.49
2023-07-15T05:46:48.405Z,98.68
2023-07-15T05:47:48.440Z,97.28
2023-07-15T05:48:49.627Z,97.86
2023-07-15T05:49:48.410Z,98.54
2023-07-15T05:50:48.346Z,97.86
2023-07-15T05:51:48.338Z,97.67
2023-07-15T05:52:48.337Z,98.00
2023-07-15T05:53:48.333Z,97.33
2023-07-15T05:54:48.335Z,96.84
2023-07-15T05:55:48.337Z,97.91
2023-07-15T05:56:48.356Z,97.14
2023-07-15T05:57:48.317Z,97.04
2023-07-15T05:58:48.310Z,97.33
2023-07-15T05:59:48.320Z,96.66
2023-07-15T06:00:48.329Z,96.84
2023-07-15T06:01:48.306Z,98.10
2023-07-15T06:02:48.340Z,98.87
2023-07-15T06:03:48.356Z,97.72
2023-07-15T06:04:48.293Z,97.62
2023-07-15T06:05:48.287Z,97.91
2023-07-15T06:06:48.293Z,97.72
2023-07-15T06:07:48.276Z,98.87
2023-07-15T06:08:48.281Z,97.91
2023-07-15T06:09:49.201Z,98.78
2023-07-15T06:10:48.285Z,98.78
2023-07-15T06:11:48.263Z,98.58
2023-07-15T06:12:48.267Z,98.87
2023-07-15T06:13:48.259Z,98.29
2023-07-15T06:14:48.254Z,98.87
2023-07-15T06:15:48.250Z,97.91
2023-07-15T06:16:48.270Z,96.41
2023-07-15T06:17:48.265Z,96.22
2023-07-15T06:18:48.244Z,95.83
2023-07-15T06:19:48.237Z,95.25
2023-07-15T06:20:48.237Z,95.16
2023-07-15T06:21:48.234Z,94.92
2023-07-15T06:22:48.268Z,94.82
2023-07-15T06:23:48.225Z,92.89
2023-07-15T06:24:48.223Z,93.76
2023-07-15T06:25:48.214Z,93.66
2023-07-15T06:26:48.214Z,93.85
2023-07-15T06:27:48.207Z,93.27
2023-07-15T06:28:48.205Z,93.56
2023-07-15T06:29:48.202Z,94.96
2023-07-15T06:30:48.223Z,95.15
2023-07-15T06:31:48.210Z,94.67
2023-07-15T06:32:48.200Z,94.77
2023-07-15T06:33:48.188Z,93.80
2023-07-15T06:34:48.191Z,93.71
2023-07-15T06:35:48.182Z,92.74
2023-07-15T06:36:48.177Z,93.41
2023-07-15T06:37:48.176Z,92.74
2023-07-15T06:38:48.183Z,91.77
2023-07-15T06:39:48.209Z,91.77
2023-07-15T06:40:48.173Z,92.65
2023-07-15T06:41:48.162Z,92.93
2023-07-15T06:42:48.177Z,93.13
2023-07-15T06:43:48.153Z,92.45
2023-07-15T06:44:48.198Z,92.21
2023-07-15T06:45:48.151Z,91.91
2023-07-15T06:46:48.230Z,91.43
2023-07-15T06:47:48.206Z,91.72
2023-07-15T06:48:48.144Z,90.66
2023-07-15T06:49:48.139Z,90.66
2023-07-15T06:50:48.147Z,90.08
2023-07-15T06:51:48.138Z,90.12
2023-07-15T06:52:48.166Z,89.74
2023-07-15T06:53:48.130Z,90.03
2023-07-15T06:54:48.120Z,89.93
2023-07-15T06:55:48.125Z,90.61
2023-07-15T06:56:48.117Z,90.99
2023-07-15T06:57:48.113Z,91.28
2023-07-15T06:58:48.147Z,93.51
2023-07-15T06:59:48.108Z,90.32
2023-07-15T07:00:48.156Z,91.14
2023-07-15T07:01:48.102Z,91.09
2023-07-15T07:02:48.149Z,88.57
2023-07-15T07:03:48.097Z,89.20
2023-07-15T07:04:48.098Z,88.81
2023-07-15T07:05:48.210Z,89.29
2023-07-15T07:06:48.092Z,89.97
2023-07-15T07:07:48.083Z,89.78
2023-07-15T07:08:48.084Z,88.33
2023-07-15T07:09:48.080Z,88.04
2023-07-15T07:10:48.084Z,87.75
2023-07-15T07:11:48.086Z,89.59
2023-07-15T07:12:48.073Z,88.33
2023-07-15T07:13:48.072Z,87.95
2023-07-15T07:14:48.067Z,88.81
2023-07-15T07:15:48.063Z,89.78
2023-07-15T07:16:48.060Z,88.43
2023-07-15T07:17:48.187Z,87.95
2023-07-15T07:18:48.103Z,87.46
2023-07-15T07:19:48.055Z,86.30
2023-07-15T07:20:48.055Z,87.07
2023-07-15T07:21:48.051Z,85.18
2023-07-15T07:22:48.095Z,85.57
2023-07-15T07:23:48.040Z,85.18
2023-07-15T07:24:48.052Z,86.29
2023-07-15T07:25:50.110Z,86.15
2023-07-15T07:26:48.040Z,85.61
2023-07-15T07:27:48.032Z,85.41
2023-07-15T07:28:48.031Z,84.55
2023-07-15T07:29:48.031Z,84.69
2023-07-15T07:30:48.070Z,85.13
2023-07-15T07:31:48.037Z,85.51
2023-07-15T07:32:48.090Z,85.80
2023-07-15T07:33:48.035Z,84.74
2023-07-15T07:34:48.018Z,83.96
2023-07-15T07:35:48.080Z,87.16
2023-07-15T07:36:48.014Z,84.64
2023-07-15T07:37:48.017Z,84.79
2023-07-15T07:38:48.010Z,85.76
2023-07-15T07:39:48.008Z,86.44
2023-07-15T07:40:48.029Z,85.80
2023-07-15T07:41:48.008Z,86.54
2023-07-15T07:42:48.002Z,88.23
2023-07-15T07:43:47.997Z,88.09
2023-07-15T07:44:48.000Z,87.16
2023-07-15T07:45:47.992Z,87.93
2023-07-15T07:46:48.090Z,86.29
2023-07-15T07:47:48.067Z,87.35
2023-07-15T07:48:48.012Z,89.29
2023-07-15T07:49:47.998Z,89.29
2023-07-15T07:50:48.003Z,89.00
2023-07-15T07:51:47.995Z,87.84
2023-07-15T07:52:48.004Z,89.29
2023-07-15T07:53:48.002Z,89.68
2023-07-15T07:54:48.001Z,87.84
2023-07-15T07:55:48.015Z,87.84
2023-07-15T07:56:47.973Z,87.84
2023-07-15T07:57:47.968Z,86.38
2023-07-15T07:58:47.969Z,84.74
2023-07-15T07:59:47.981Z,82.60
2023-07-15T08:00:47.988Z,83.67
2023-07-15T08:01:47.975Z,83.23
2023-07-15T08:02:48.073Z,82.84
2023-07-15T08:03:48.049Z,83.52
2023-07-15T08:04:48.008Z,84.20
2023-07-15T08:05:47.972Z,84.20
2023-07-15T08:06:47.950Z,84.78
2023-07-15T08:07:47.961Z,85.36
2023-07-15T08:08:47.947Z,85.89
2023-07-15T08:09:47.970Z,83.65
2023-07-15T08:10:47.947Z,82.78
2023-07-15T08:11:47.945Z,82.98
2023-07-15T08:12:47.939Z,82.98
2023-07-15T08:13:47.948Z,82.20
2023-07-15T08:14:47.941Z,82.40
2023-07-15T08:15:47.945Z,83.07
2023-07-15T08:16:47.945Z,83.95
2023-07-15T08:17:48.013Z,83.37
2023-07-15T08:18:47.930Z,82.98
2023-07-15T08:19:47.944Z,84.14
2023-07-15T08:20:47.926Z,83.37
2023-07-15T08:21:47.931Z,82.78
2023-07-15T08:22:47.973Z,82.40
2023-07-15T08:23:47.932Z,82.59
2023-07-15T08:24:47.938Z,83.40
2023-07-15T08:25:47.968Z,83.80
2023-07-15T08:26:47.940Z,82.24
2023-07-15T08:27:47.912Z,82.15
2023-07-15T08:28:47.926Z,81.70
2023-07-15T08:29:47.909Z,81.70
2023-07-15T08:30:47.916Z,81.90
2023-07-15T08:31:47.940Z,78.15
2023-07-15T08:32:47.945Z,76.64
2023-07-15T08:33:47.901Z,76.92
2023-07-15T08:34:47.903Z,75.27
2023-07-15T08:35:47.899Z,75.31
2023-07-15T08:36:47.896Z,75.21
2023-07-15T08:37:47.899Z,74.34
2023-07-15T08:38:47.895Z,73.56
2023-07-15T08:39:47.894Z,74.44
2023-07-15T08:40:47.894Z,75.89
2023-07-15T08:41:47.895Z,77.06
2023-07-15T08:42:47.895Z,74.63
2023-07-15T08:43:50.899Z,74.44
2023-07-15T08:44:47.889Z,74.54
2023-07-15T08:45:47.912Z,75.02
2023-07-15T08:46:47.941Z,77.06
2023-07-15T08:47:47.911Z,75.31
2023-07-15T08:48:47.889Z,73.02
2023-07-15T08:49:47.889Z,72.88
2023-07-15T08:50:47.886Z,73.66
2023-07-15T08:51:47.882Z,74.67
2023-07-15T08:52:47.892Z,75.45
2023-07-15T08:53:47.925Z,73.30
2023-07-15T08:54:47.882Z,73.79
2023-07-15T08:55:47.879Z,75.31
2023-07-15T08:56:47.881Z,75.64
2023-07-15T08:57:47.876Z,73.50
2023-07-15T08:58:47.876Z,73.11
2023-07-15T08:59:47.876Z,74.28
2023-07-15T09:00:47.875Z,75.15
2023-07-15T09:01:47.974Z,75.41
2023-07-15T09:02:47.929Z,73.69
2023-07-15T09:03:47.906Z,74.76
2023-07-15T09:04:47.946Z,74.96
2023-07-15T09:05:47.870Z,75.05
2023-07-15T09:06:47.867Z,75.25
2023-07-15T09:07:47.861Z,76.22
2023-07-15T09:08:47.867Z,75.93
2023-07-15T09:09:47.874Z,75.64
2023-07-15T09:10:47.868Z,75.84
2023-07-15T09:11:47.875Z,76.28
2023-07-15T09:12:47.886Z,74.73
2023-07-15T09:13:47.874Z,76.28
2023-07-15T09:14:53.925Z,76.77
2023-07-15T09:15:47.867Z,76.67
2023-07-15T09:16:47.931Z,76.67
2023-07-15T09:17:47.886Z,76.54
2023-07-15T09:18:47.868Z,76.64
2023-07-15T09:19:47.863Z,76.54
2023-07-15T09:20:47.865Z,76.83
2023-07-15T09:21:47.863Z,76.25
2023-07-15T09:22:47.918Z,76.73
2023-07-15T09:23:47.862Z,78.09
2023-07-15T09:24:47.869Z,77.90
2023-07-15T09:25:47.862Z,77.70
2023-07-15T09:26:47.857Z,79.64
2023-07-15T09:27:47.860Z,77.99
2023-07-15T09:28:47.854Z,76.60
2023-07-15T09:29:47.858Z,77.90
2023-07-15T09:30:47.858Z,77.99
2023-07-15T09:31:48.460Z,76.64
2023-07-15T09:32:47.910Z,77.70
2023-07-15T09:33:47.856Z,76.92
2023-07-15T09:34:47.851Z,77.31
2023-07-15T09:35:47.852Z,77.90
2023-07-15T09:36:47.851Z,76.64
2023-07-15T09:37:47.854Z,75.85
2023-07-15T09:38:47.848Z,77.02
2023-07-15T09:39:47.856Z,76.98
2023-07-15T09:40:47.844Z,78.05
2023-07-15T09:41:47.859Z,78.05
2023-07-15T09:42:47.843Z,78.15
2023-07-15T09:43:47.872Z,77.86
2023-07-15T09:44:47.840Z,77.37
2023-07-15T09:45:47.877Z,77.47
2023-07-15T09:46:47.846Z,76.69
2023-07-15T09:47:47.862Z,77.37
2023-07-15T09:48:47.838Z,77.76
2023-07-15T09:49:47.840Z,78.83
2023-07-15T09:50:47.835Z,78.64
2023-07-15T09:51:47.838Z,79.66
2023-07-15T09:52:47.844Z,78.40
2023-07-15T09:53:47.836Z,79.47
2023-07-15T09:54:47.840Z,78.79
2023-07-15T09:55:47.832Z,78.15
2023-07-15T09:56:47.836Z,78.25
2023-07-15T09:57:47.835Z,80.34
2023-07-15T09:58:47.825Z,80.63
2023-07-15T09:59:47.832Z,78.34
2023-07-15T10:00:47.897Z,77.82
2023-07-15T10:01:47.935Z,80.83
2023-07-15T10:02:47.906Z,83.84
2023-07-15T10:03:47.833Z,84.12
2023-07-15T10:04:47.839Z,85.00
2023-07-15T10:05:47.829Z,85.39
2023-07-15T10:06:47.838Z,84.42
2023-07-15T10:07:47.822Z,84.71
2023-07-15T10:08:47.816Z,85.00
2023-07-15T10:09:47.820Z,83.80
2023-07-15T10:10:47.817Z,85.25
2023-07-15T10:11:47.818Z,82.15
2023-07-15T10:12:47.820Z,82.67
2023-07-15T10:13:47.814Z,83.02
2023-07-15T10:14:47.811Z,82.73
2023-07-15T10:15:47.824Z,82.92
2023-07-15T10:16:47.814Z,81.90
2023-07-15T10:17:47.884Z,81.41
2023-07-15T10:18:47.809Z,81.41
2023-07-15T10:19:47.811Z,81.70
2023-07-15T10:20:47.803Z,81.99
2023-07-15T10:21:47.825Z,82.38
2023-07-15T10:22:47.834Z,81.60
2023-07-15T10:23:47.801Z,81.99
2023-07-15T10:24:47.802Z,82.48
2023-07-15T10:25:47.801Z,82.18
2023-07-15T10:26:47.802Z,83.06
2023-07-15T10:27:47.805Z,82.77
2023-07-15T10:28:47.793Z,83.84
2023-07-15T10:29:52.036Z,85.78
2023-07-15T10:30:57.442Z,87.82
2023-07-15T10:31:47.798Z,89.27
2023-07-15T10:32:47.810Z,89.42
2023-07-15T10:33:47.788Z,89.47
2023-07-15T10:34:47.787Z,89.32
2023-07-15T10:35:47.791Z,90.53
2023-07-15T10:36:47.789Z,89.13
2023-07-15T10:37:47.800Z,89.13
2023-07-15T10:38:47.784Z,89.52
2023-07-15T10:39:47.787Z,89.90
2023-07-15T10:40:47.789Z,89.23
2023-07-15T10:41:47.778Z,88.35
2023-07-15T10:42:47.785Z,88.26
2023-07-15T10:43:47.777Z,88.26
2023-07-15T10:44:47.780Z,88.06
2023-07-15T10:45:47.777Z,89.52
2023-07-15T10:46:47.829Z,86.75
2023-07-15T10:47:47.811Z,88.49
2023-07-15T10:48:47.770Z,86.36
2023-07-15T10:49:50.335Z,86.07
2023-07-15T10:50:47.773Z,86.26
2023-07-15T10:51:47.777Z,85.88
2023-07-15T10:52:47.771Z,86.36
2023-07-15T10:53:47.778Z,87.13
2023-07-15T10:54:47.772Z,87.13
2023-07-15T10:55:47.775Z,87.72
2023-07-15T10:56:47.768Z,90.73
2023-07-15T10:57:54.781Z,90.88
2023-07-15T10:58:47.762Z,92.23
2023-07-15T10:59:47.763Z,93.11
2023-07-15T11:00:47.812Z,94.90
2023-07-15T11:01:47.762Z,94.13
2023-07-15T11:02:47.797Z,94.03
2023-07-15T11:03:47.761Z,93.06
2023-07-15T11:04:47.804Z,94.81
2023-07-15T11:05:47.759Z,95.78
2023-07-15T11:06:47.810Z,96.31
2023-07-15T11:07:47.759Z,96.89
2023-07-15T11:08:47.753Z,97.86
2023-07-15T11:09:47.764Z,97.28
2023-07-15T11:10:47.750Z,98.25
2023-07-15T11:11:47.752Z,99.02
2023-07-15T11:12:47.749Z,99.99
2023-07-15T11:13:47.743Z,99.99
2023-07-15T11:14:47.745Z,99.90
2023-07-15T11:15:47.746Z,99.99
2023-07-15T11:16:47.767Z,97.67
2023-07-15T11:17:47.774Z,98.15
2023-07-15T11:18:47.739Z,97.86
2023-07-15T11:19:47.754Z,96.50
2023-07-15T11:20:47.741Z,97.28
2023-07-15T11:21:47.742Z,96.89
2023-07-15T11:22:47.751Z,95.83
2023-07-15T11:23:47.746Z,97.52
2023-07-15T11:24:47.735Z,98.39
2023-07-15T11:25:47.740Z,99.36
2023-07-15T11:26:47.736Z,99.85
2023-07-15T11:27:47.736Z,99.99
2023-07-15T11:28:47.745Z,99.99
2023-07-15T11:29:47.735Z,99.36
2023-07-15T11:30:47.768Z,99.22
2023-07-15T11:31:47.733Z,99.99
2023-07-15T11:32:47.781Z,99.99
2023-07-15T11:33:47.728Z,99.99
2023-07-15T11:34:47.737Z,99.99
2023-07-15T11:35:47.787Z,99.41
2023-07-15T11:36:47.724Z,99.90
2023-07-15T11:37:47.725Z,99.99
2023-07-15T11:38:47.719Z,99.99
2023-07-15T11:39:47.733Z,99.99
2023-07-15T11:40:47.718Z,99.99
2023-07-15T11:41:47.720Z,99.99
2023-07-15T11:42:47.715Z,99.99
2023-07-15T11:43:47.721Z,99.99
2023-07-15T11:44:47.711Z,99.99
2023-07-15T11:45:47.725Z,99.99
2023-07-15T11:46:47.821Z,99.99
2023-07-15T11:47:47.733Z,99.99
2023-07-15T11:48:47.708Z,99.99
2023-07-15T11:49:47.709Z,99.99
2023-07-15T11:50:47.707Z,99.99
2023-07-15T11:51:47.709Z,99.99
2023-07-15T11:52:47.709Z,99.99
2023-07-15T11:53:47.701Z,99.99
2023-07-15T11:54:47.702Z,99.99
2023-07-15T11:55:47.702Z,99.99
2023-07-15T11:56:47.696Z,99.99
2023-07-15T11:57:47.699Z,99.99
2023-07-15T11:58:47.717Z,99.99
2023-07-15T11:59:47.693Z,99.99
2023-07-15T12:00:47.689Z,99.99
2023-07-15T12:01:47.719Z,99.99
2023-07-15T12:02:47.709Z,99.99
2023-07-15T12:03:47.749Z,99.99
2023-07-15T12:04:47.688Z,99.99
2023-07-15T12:05:47.697Z,99.99
2023-07-15T12:06:47.710Z,99.99
2023-07-15T12:07:48.499Z,99.99
2023-07-15T12:08:47.685Z,99.99
2023-07-15T12:09:47.697Z,99.99
2023-07-15T12:10:54.888Z,99.99
2023-07-15T12:12:51.653Z,99.99
2023-07-15T12:13:51.627Z,99.99
2023-07-15T12:15:55.843Z,99.99
2023-07-15T12:16:55.640Z,99.99
2023-07-15T12:18:59.662Z,99.99
2023-07-15T12:19:59.541Z,99.99
2023-07-15T12:21:52.477Z,99.99
2023-07-15T12:22:52.430Z,99.99
2023-07-15T12:24:56.386Z,99.99
2023-07-15T12:25:56.374Z,98.78
2023-07-15T12:28:00.361Z,98.35
2023-07-15T12:29:00.346Z,97.56
2023-07-15T12:30:53.289Z,96.98
2023-07-15T12:31:53.231Z,95.34
2023-07-15T12:33:57.254Z,97.18
2023-07-15T12:34:57.180Z,98.44
2023-07-15T12:37:01.164Z,99.99
2023-07-15T12:38:01.147Z,99.99
2023-07-15T12:40:05.109Z,99.99
2023-07-15T12:41:05.111Z,99.99
2023-07-15T12:43:09.057Z,99.99
2023-07-15T12:44:09.106Z,99.99
2023-07-15T12:46:13.808Z,99.99
2023-07-15T12:47:12.996Z,99.99
2023-07-15T12:49:16.960Z,99.99
2023-07-15T12:50:16.955Z,99.99
2023-07-15T12:52:20.914Z,99.99
2023-07-15T12:53:20.911Z,99.99
2023-07-15T12:55:24.867Z,99.94
2023-07-15T12:56:24.871Z,99.85
2023-07-15T12:58:28.833Z,99.99
2023-07-15T12:59:28.804Z,99.99
2023-07-15T13:01:21.753Z,99.99
2023-07-15T13:02:21.723Z,99.99
2023-07-15T13:03:21.779Z,99.99
2023-07-15T13:04:21.710Z,99.99
2023-07-15T13:05:21.690Z,99.99
2023-07-15T13:06:21.691Z,99.99
2023-07-15T13:07:21.691Z,99.99
2023-07-15T13:08:21.690Z,99.99
2023-07-15T13:09:21.688Z,99.99
2023-07-15T13:10:21.689Z,99.99